Time;durP1;ratioP1;P1;durP2;ratioP2;P2;SDS_P1;SDS_P2;PMS_P1;PMS_P2;Temp;Humidity;BMP_temperature;BMP_pressure;BME280_temperature;BME280_humidity;BME280_pressure;Samples;Min_cycle;Max_cycle;Signal;HPM_P1;HPM_P2
2024/04/02 00:01:05;;;;;;;4.60;2.40;;;;;;;12.99;70.65;98720.39;110973;1259;22162;-72
2024/04/02 00:03:48;;;;;;;5.90;2.60;;;;;;;12.91;70.91;98714.98;110684;1259;23608;-74
2024/04/02 00:06:17;;;;;;;7.60;2.60;;;;;;;12.89;70.99;98709.05;110676;1259;22061;-73
2024/04/02 00:08:46;;;;;;;5.80;2.60;;;;;;;12.88;71.24;98708.98;110953;1258;22093;-73
2024/04/02 00:11:14;;;;;;;6.10;2.60;;;;;;;12.85;71.17;98711.98;110984;1259;23022;-73
2024/04/02 00:13:45;;;;;;;4.20;2.10;;;;;;;12.79;70.82;98712.14;110830;1252;21950;-72
2024/04/02 00:16:14;;;;;;;6.90;2.60;;;;;;;12.75;71.17;98717.63;111593;1252;22350;-74
2024/04/02 00:18:43;;;;;;;6.90;2.30;;;;;;;12.72;71.29;98724.27;111318;1252;23669;-74
2024/04/02 00:21:12;;;;;;;3.40;1.90;;;;;;;12.74;71.21;98732.25;111583;1252;23595;-73
2024/04/02 00:23:42;;;;;;;5.00;2.10;;;;;;;12.74;71.14;98743.17;111249;1252;21959;-73
2024/04/02 00:26:12;;;;;;;5.90;2.70;;;;;;;12.74;71.20;98748.80;111588;1252;21979;-73
2024/04/02 00:28:41;;;;;;;5.00;2.40;;;;;;;12.74;70.85;98741.95;111712;1252;23669;-74
2024/04/02 00:31:13;;;;;;;7.10;2.30;;;;;;;12.72;70.77;98735.06;113221;1252;21984;-74
2024/04/02 00:33:41;;;;;;;;;;;;;;;12.71;70.50;98727.41;112313;1242;21936;-73
2024/04/02 00:36:10;;;;;;;6.50;2.00;;;;;;;12.61;70.60;98731.88;111589;1252;23063;-74
2024/04/02 00:38:39;;;;;;;7.00;2.30;;;;;;;12.61;70.75;98740.81;111620;1252;22001;-74
2024/04/02 00:41:07;;;;;;;5.20;1.60;;;;;;;12.63;70.68;98745.62;111593;1252;21949;-74
2024/04/02 00:43:36;;;;;;;3.60;1.80;;;;;;;12.60;70.56;98744.13;111614;1252;22748;-73
2024/04/02 00:46:05;;;;;;;2.70;1.50;;;;;;;12.59;70.48;98742.23;111285;1252;22993;-74
2024/04/02 00:48:34;;;;;;;6.20;1.80;;;;;;;12.61;70.26;98746.81;111259;1252;23459;-76
2024/04/02 00:51:03;;;;;;;3.80;1.90;;;;;;;12.61;70.07;98743.13;111353;1252;23845;-74
2024/04/02 00:53:32;;;;;;;2.40;1.30;;;;;;;12.57;70.25;98740.17;111261;1249;21997;-75
2024/04/02 00:56:01;;;;;;;3.80;1.60;;;;;;;12.56;70.27;98740.50;111575;1252;21992;-74
2024/04/02 00:58:31;;;;;;;1.70;1.10;;;;;;;12.54;70.16;98738.60;111604;1252;21954;-73
2024/04/02 01:01:00;;;;;;;3.80;1.70;;;;;;;12.49;70.07;98736.04;111568;1252;21980;-75
2024/04/02 01:03:29;;;;;;;2.80;1.30;;;;;;;12.44;70.09;98739.41;111601;1252;23099;-72
2024/04/02 01:06:00;;;;;;;2.40;1.60;;;;;;;12.43;69.82;98741.08;111572;1252;21949;-73
2024/04/02 01:08:30;;;;;;;3.70;1.60;;;;;;;12.41;69.57;98741.69;111331;1252;23592;-73
2024/04/02 01:10:59;;;;;;;2.50;1.40;;;;;;;12.36;69.80;98748.33;111308;1252;21949;-73
2024/04/02 01:13:29;;;;;;;1.90;1.20;;;;;;;12.34;69.73;98743.25;111566;1252;23009;-72
2024/04/02 01:16:04;;;;;;;2.60;1.30;;;;;;;12.31;69.85;98750.41;111340;1252;21951;-72
2024/04/02 01:18:33;;;;;;;3.00;1.40;;;;;;;12.27;69.98;98757.45;111572;1249;23055;-73
2024/04/02 01:21:03;;;;;;;2.70;1.30;;;;;;;12.22;70.05;98760.52;111746;1252;23099;-73
2024/04/02 01:23:32;;;;;;;5.10;1.60;;;;;;;12.21;70.24;98764.23;111641;1252;21967;-72
2024/04/02 01:26:00;;;;;;;3.50;1.30;;;;;;;12.20;70.38;98761.48;111588;1252;21947;-72
2024/04/02 01:28:29;;;;;;;5.00;1.30;;;;;;;12.20;70.45;98758.85;111601;1252;22340;-72
2024/04/02 01:30:57;;;;;;;4.60;2.20;;;;;;;12.21;70.37;98753.56;111607;1252;23726;-72
2024/04/02 01:33:26;;;;;;;4.10;1.90;;;;;;;12.19;70.20;98749.20;111575;1249;21945;-75
2024/04/02 01:35:55;;;;;;;2.10;1.20;;;;;;;12.16;70.27;98750.37;111513;1245;23006;-71
2024/04/02 01:38:24;;;;;;;2.80;1.80;;;;;;;12.14;70.28;98747.63;111563;1252;23662;-73
2024/04/02 01:40:53;;;;;;;4.50;1.70;;;;;;;12.12;70.34;98746.63;111569;1252;21953;-72
2024/04/02 01:43:21;;;;;;;3.10;1.10;;;;;;;12.09;70.49;98746.09;111583;1252;21949;-72
2024/04/02 01:45:50;;;;;;;2.90;1.60;;;;;;;12.05;70.53;98747.71;111357;1252;23668;-74
2024/04/02 01:48:18;;;;;;;2.60;1.30;;;;;;;12.00;70.72;98745.67;111600;1252;21951;-73
2024/04/02 01:50:47;;;;;;;2.00;1.50;;;;;;;11.98;70.70;98744.07;111569;1252;21949;-73
2024/04/02 01:53:15;;;;;;;6.80;1.60;;;;;;;11.98;70.74;98745.05;111587;1252;23764;-73
2024/04/02 01:55:45;;;;;;;5.20;1.60;;;;;;;11.96;70.92;98747.89;111581;1252;22863;-73
2024/04/02 01:58:14;;;;;;;4.00;1.70;;;;;;;11.97;70.74;98757.29;111570;1252;22149;-73
2024/04/02 02:00:42;;;;;;;4.30;1.60;;;;;;;11.93;71.01;98759.77;111580;1252;23683;-72
2024/04/02 02:03:11;;;;;;;2.40;1.80;;;;;;;11.92;71.16;98755.15;111579;1252;22270;-72
2024/04/02 02:05:40;;;;;;;2.50;1.50;;;;;;;11.90;71.20;98755.85;111571;1246;21950;-73
2024/04/02 02:08:08;;;;;;;4.50;1.80;;;;;;;11.88;71.16;98755.17;111584;1245;21944;-73
2024/04/02 02:10:37;;;;;;;2.10;1.50;;;;;;;11.87;71.25;98757.73;111572;1252;22011;-73
2024/04/02 02:13:08;;;;;;;2.60;1.60;;;;;;;11.88;71.35;98760.84;111600;1252;21957;-73
2024/04/02 02:15:36;;;;;;;2.80;1.60;;;;;;;11.88;71.24;98769.08;111565;1252;22726;-73
2024/04/02 02:18:05;;;;;;;2.40;1.50;;;;;;;11.87;71.25;98767.84;111636;1252;21957;-74
2024/04/02 02:20:34;;;;;;;1.50;1.20;;;;;;;11.84;71.31;98762.51;111586;1252;21961;-73
2024/04/02 02:23:02;;;;;;;2.40;1.60;;;;;;;11.81;71.33;98759.43;111572;1252;22037;-72
2024/04/02 02:25:31;;;;;;;2.90;1.70;;;;;;;11.78;71.40;98763.58;111582;1252;23106;-73
2024/04/02 02:27:59;;;;;;;3.10;1.80;;;;;;;11.77;71.49;98763.86;111622;1252;23671;-73
2024/04/02 02:30:28;;;;;;;3.10;1.70;;;;;;;11.76;71.35;98764.45;111575;1252;21951;-74
2024/04/02 02:32:56;;;;;;;4.60;2.10;;;;;;;11.77;71.39;98762.97;111594;1252;23016;-73
2024/04/02 02:35:25;;;;;;;3.10;2.40;;;;;;;11.74;71.14;98760.08;111566;1244;23012;-72
2024/04/02 02:37:54;;;;;;;2.60;2.10;;;;;;;11.72;70.98;98758.92;111561;1252;22856;-73
2024/04/02 02:40:22;;;;;;;3.30;2.00;;;;;;;11.70;70.91;98762.98;111569;1252;21959;-73
2024/04/02 02:42:51;;;;;;;4.40;2.20;;;;;;;11.66;70.77;98761.56;111593;1252;22926;-73
2024/04/02 02:45:20;;;;;;;2.80;2.10;;;;;;;11.62;70.86;98766.95;111577;1252;23581;-75
2024/04/02 02:47:49;;;;;;;2.40;1.80;;;;;;;11.60;70.88;98767.00;111581;1252;23566;-74
2024/04/02 02:50:18;;;;;;;6.70;2.10;;;;;;;11.57;70.71;98767.45;111590;1252;21965;-73
2024/04/02 02:52:46;;;;;;;1.70;1.50;;;;;;;11.55;70.68;98767.19;111601;1252;22148;-75
2024/04/02 02:55:15;;;;;;;3.90;1.70;;;;;;;11.52;70.55;98767.94;111302;1252;23633;-74
2024/04/02 02:57:43;;;;;;;2.50;1.60;;;;;;;11.46;70.61;98770.42;111305;1252;22184;-73
2024/04/02 03:00:12;;;;;;;2.70;1.60;;;;;;;11.41;70.77;98767.83;111599;1248;21952;-74
2024/04/02 03:02:41;;;;;;;3.80;1.50;;;;;;;11.36;70.83;98764.39;111576;1252;21964;-74
2024/04/02 03:05:10;;;;;;;2.30;1.80;;;;;;;11.35;70.78;98762.78;111594;1252;21936;-74
2024/04/02 03:07:39;;;;;;;5.40;1.70;;;;;;;11.35;70.92;98769.04;111669;1252;22063;-76
2024/04/02 03:10:08;;;;;;;3.00;2.00;;;;;;;11.35;71.12;98768.89;113005;1252;21971;-73
2024/04/02 03:12:36;;;;;;;3.90;1.60;;;;;;;11.37;71.08;98769.08;112449;1252;22962;-72
2024/04/02 03:15:05;;;;;;;2.50;2.20;;;;;;;11.39;71.18;98770.44;111586;1252;21991;-73
2024/04/02 03:17:34;;;;;;;3.10;2.80;;;;;;;11.42;71.04;98771.08;111595;1252;21942;-72
2024/04/02 03:20:04;;;;;;;2.40;2.20;;;;;;;11.43;71.08;98772.13;111592;1252;21954;-73
2024/04/02 03:22:32;;;;;;;3.50;2.80;;;;;;;11.44;70.97;98776.29;111583;1252;23563;-73
2024/04/02 03:25:01;;;;;;;3.30;2.60;;;;;;;11.43;71.03;98773.96;111612;1252;21970;-72
2024/04/02 03:27:31;;;;;;;2.90;2.50;;;;;;;11.40;71.06;98764.85;111305;1252;23717;-73
2024/04/02 03:29:59;;;;;;;2.80;2.60;;;;;;;11.41;71.30;98765.16;111282;1252;21948;-72
2024/04/02 03:32:29;;;;;;;3.30;2.90;;;;;;;11.40;71.21;98766.27;111305;1252;22052;-72
2024/04/02 03:34:57;;;;;;;2.90;2.40;;;;;;;11.37;71.07;98764.82;111576;1252;23780;-72
2024/04/02 03:37:26;;;;;;;3.40;2.60;;;;;;;11.34;71.15;98769.34;111600;1252;21983;-72
2024/04/02 03:39:55;;;;;;;3.70;2.70;;;;;;;11.32;70.94;98768.38;111255;1252;21989;-72
2024/04/02 03:42:23;;;;;;;3.50;2.50;;;;;;;11.29;71.06;98770.23;111594;1252;22016;-71
2024/04/02 03:44:52;;;;;;;4.80;4.30;;;;;;;11.28;70.89;98769.99;111302;1252;23034;-71
2024/04/02 03:47:21;;;;;;;4.70;3.00;;;;;;;11.23;70.86;98767.44;111316;1252;21952;-72
2024/04/02 03:49:50;;;;;;;3.00;2.70;;;;;;;11.21;70.85;98766.80;111600;1252;23760;-72
2024/04/02 03:52:18;;;;;;;2.60;2.30;;;;;;;11.18;70.61;98768.96;111546;1252;22385;-72
2024/04/02 03:54:47;;;;;;;2.90;2.60;;;;;;;11.16;70.54;98766.20;111580;1252;23665;-72
2024/04/02 03:57:16;;;;;;;3.00;2.70;;;;;;;11.13;70.50;98762.44;111576;1252;21959;-71
2024/04/02 03:59:45;;;;;;;2.70;2.40;;;;;;;11.11;70.52;98762.69;111580;1252;25020;-71
2024/04/02 04:02:14;;;;;;;5.30;3.30;;;;;;;11.09;70.50;98762.66;111033;1258;21957;-71
2024/04/02 04:04:43;;;;;;;6.30;3.30;;;;;;;11.09;70.49;98765.48;110705;1258;23100;-71
2024/04/02 04:07:11;;;;;;;4.50;3.40;;;;;;;11.09;70.14;98762.83;111007;1258;23679;-71
2024/04/02 04:09:40;;;;;;;6.40;3.40;;;;;;;11.09;70.24;98764.30;110971;1258;22040;-71
2024/04/02 04:12:09;;;;;;;5.40;2.90;;;;;;;11.05;70.27;98763.45;111011;1258;21996;-71
2024/04/02 04:14:38;;;;;;;4.60;3.50;;;;;;;11.00;70.08;98764.41;111020;1258;22926;-72
2024/04/02 04:17:06;;;;;;;4.00;3.50;;;;;;;10.98;70.21;98765.84;111039;1258;21957;-72
2024/04/02 04:19:35;;;;;;;5.70;3.40;;;;;;;10.96;70.12;98768.80;111011;1252;23451;-71
2024/04/02 04:22:04;;;;;;;4.90;3.60;;;;;;;10.93;70.24;98775.64;111588;1252;23102;-73
2024/04/02 04:24:33;;;;;;;3.80;3.40;;;;;;;10.91;70.28;98776.92;111566;1252;23598;-73
2024/04/02 04:27:01;;;;;;;4.00;3.70;;;;;;;10.90;70.13;98777.18;111590;1252;22027;-72
2024/04/02 04:29:30;;;;;;;3.60;3.30;;;;;;;10.89;70.08;98778.13;111271;1252;21947;-72
2024/04/02 04:31:59;;;;;;;5.60;4.10;;;;;;;10.87;69.91;98771.48;111288;1252;22049;-72
2024/04/02 04:34:28;;;;;;;8.10;3.50;;;;;;;10.82;70.07;98771.25;111311;1252;23108;-72
2024/04/02 04:36:56;;;;;;;4.10;3.40;;;;;;;10.79;69.97;98776.10;111568;1252;22827;-73
2024/04/02 04:39:26;;;;;;;4.20;3.50;;;;;;;10.75;69.85;98772.29;111368;1252;21975;-72
2024/04/02 04:41:55;;;;;;;4.80;4.00;;;;;;;10.75;69.81;98777.21;111576;1252;24083;-72
2024/04/02 04:44:23;;;;;;;3.90;3.40;;;;;;;10.75;69.80;98774.07;111599;1252;21947;-73
2024/04/02 04:46:52;;;;;;;5.50;3.60;;;;;;;10.72;69.60;98772.75;111604;1252;21966;-72
2024/04/02 04:49:21;;;;;;;6.50;3.70;;;;;;;10.70;69.44;98772.77;111554;1252;21975;-73
2024/04/02 04:51:49;;;;;;;5.10;3.50;;;;;;;10.71;69.38;98772.14;111653;1252;21950;-72
2024/04/02 04:54:18;;;;;;;5.30;4.80;;;;;;;10.71;69.42;98772.37;111579;1252;21994;-71
2024/04/02 04:56:47;;;;;;;4.20;3.80;;;;;;;10.70;69.39;98773.13;111552;1252;21970;-72
2024/04/02 04:59:15;;;;;;;3.80;3.40;;;;;;;10.71;69.39;98773.87;111828;1252;22048;-71
2024/04/02 05:01:44;;;;;;;4.00;3.30;;;;;;;10.71;69.22;98779.14;112026;1252;22042;-71
2024/04/02 05:04:13;;;;;;;3.60;2.70;;;;;;;10.71;69.15;98779.51;111818;1252;22953;-71
2024/04/02 05:06:43;;;;;;;4.10;3.40;;;;;;;10.70;69.02;98782.92;111596;1252;21972;-72
2024/04/02 05:09:13;;;;;;;3.30;2.70;;;;;;;10.70;68.84;98789.72;111377;1251;22027;-72
2024/04/02 05:11:41;;;;;;;4.10;3.10;;;;;;;10.70;68.68;98790.55;111397;1252;22837;-71
2024/04/02 05:14:10;;;;;;;5.70;3.10;;;;;;;10.69;68.43;98789.98;111440;1252;23577;-72
2024/04/02 05:16:39;;;;;;;5.00;3.90;;;;;;;10.68;68.51;98790.89;111594;1252;22994;-71
2024/04/02 05:19:08;;;;;;;5.10;3.50;;;;;;;10.67;68.23;98792.82;111357;1252;23014;-72
2024/04/02 05:21:37;;;;;;;3.10;2.80;;;;;;;10.65;68.04;98797.91;111571;1252;23669;-73
2024/04/02 05:24:05;;;;;;;5.00;3.90;;;;;;;10.62;67.91;98803.16;111577;1252;21971;-72
2024/04/02 05:26:34;;;;;;;4.40;3.40;;;;;;;10.62;67.57;98807.19;110862;1259;23573;-72
2024/04/02 05:29:03;;;;;;;8.80;3.60;;;;;;;10.62;67.51;98808.41;110719;1253;21966;-72
2024/04/02 05:31:31;;;;;;;7.30;2.90;;;;;;;10.62;67.46;98819.52;110648;1258;21958;-72
2024/04/02 05:34:00;;;;;;;4.40;2.60;;;;;;;10.62;67.09;98828.61;110689;1260;21971;-71
2024/04/02 05:36:29;;;;;;;5.40;3.30;;;;;;;10.63;66.89;98836.77;110712;1260;21985;-72
2024/04/02 05:38:57;;;;;;;4.70;2.80;;;;;;;10.66;66.78;98839.91;110701;1260;23016;-73
2024/04/02 05:41:27;;;;;;;4.90;2.90;;;;;;;10.66;66.48;98849.41;110813;1260;22047;-71
2024/04/02 05:43:56;;;;;;;4.40;2.80;;;;;;;10.67;66.22;98854.91;110797;1252;22037;-73
2024/04/02 05:46:25;;;;;;;5.40;2.80;;;;;;;10.68;65.94;98855.91;111274;1252;21968;-73
2024/04/02 05:48:53;;;;;;;4.00;3.20;;;;;;;10.67;65.93;98861.47;111329;1252;21992;-72
2024/04/02 05:51:22;;;;;;;4.90;3.20;;;;;;;10.67;65.73;98866.00;112940;1252;22335;-72
2024/04/02 05:53:51;;;;;;;3.30;2.90;;;;;;;10.68;66.00;98876.98;112298;1252;21967;-71
2024/04/02 05:56:19;;;;;;;5.10;3.90;;;;;;;10.72;66.20;98882.07;111310;1252;21962;-72
2024/04/02 05:58:48;;;;;;;4.60;4.10;;;;;;;10.73;65.90;98883.08;111268;1252;21952;-72
2024/04/02 06:01:17;;;;;;;4.30;3.40;;;;;;;10.71;66.12;98883.05;111557;1252;23160;-72
2024/04/02 06:03:46;;;;;;;6.40;3.90;;;;;;;10.72;65.89;98880.00;111409;1252;22534;-72
2024/04/02 06:06:14;;;;;;;4.20;3.10;;;;;;;10.71;66.21;98873.55;111592;1252;21957;-73
2024/04/02 06:08:43;;;;;;;4.60;3.00;;;;;;;10.71;66.09;98872.67;111589;1252;23006;-72
2024/04/02 06:11:12;;;;;;;7.70;3.50;;;;;;;10.72;66.18;98875.44;111576;1252;22436;-71
2024/04/02 06:13:40;;;;;;;3.80;3.20;;;;;;;10.72;65.75;98882.27;111367;1248;22991;-73
2024/04/02 06:16:09;;;;;;;6.10;3.80;;;;;;;10.71;65.77;98886.89;111607;1252;22039;-72
2024/04/02 06:18:38;;;;;;;8.30;4.00;;;;;;;10.73;65.71;98892.55;111276;1252;21948;-73
2024/04/02 06:21:06;;;;;;;7.00;3.70;;;;;;;10.77;65.47;98893.63;111568;1251;21951;-73
2024/04/02 06:23:35;;;;;;;4.40;3.20;;;;;;;10.76;65.58;98888.56;111566;1248;22997;-72
2024/04/02 06:26:04;;;;;;;3.90;3.00;;;;;;;10.75;65.32;98886.57;111384;1252;21956;-71
2024/04/02 06:28:32;;;;;;;4.10;3.30;;;;;;;10.73;65.15;98885.52;111593;1252;23055;-74
2024/04/02 06:31:02;;;;;;;20.40;18.20;;;;;;;10.70;64.96;98886.51;111585;1242;21947;-75
2024/04/02 06:33:31;;;;;;;6.10;4.40;;;;;;;10.65;65.21;98886.13;111620;1252;23774;-73
2024/04/02 06:36:00;;;;;;;9.30;3.70;;;;;;;10.67;64.99;98888.73;111305;1239;22850;-73
2024/04/02 06:38:28;;;;;;;5.20;3.60;;;;;;;10.68;65.10;98885.95;111579;1252;22145;-74
2024/04/02 06:40:57;;;;;;;5.80;4.50;;;;;;;10.71;65.22;98887.08;111321;1252;22086;-71
2024/04/02 06:43:26;;;;;;;6.90;3.30;;;;;;;10.76;64.73;98891.38;111280;1252;23627;-70
2024/04/02 06:45:59;;;;;;;5.00;3.00;;;;;;;10.73;64.69;98891.16;111307;1252;21992;-70
2024/04/02 06:48:27;;;;;;;8.40;3.60;;;;;;;10.76;64.84;98891.59;111581;1252;21962;-72
2024/04/02 06:51:02;;;;;;;5.80;3.30;;;;;;;10.77;64.82;98891.48;111337;1252;21961;-71
2024/04/02 06:53:32;;;;;;;3.80;2.90;;;;;;;10.79;64.79;98892.47;111600;1252;23760;-72
2024/04/02 06:56:01;;;;;;;3.50;2.70;;;;;;;10.81;64.96;98891.47;111291;1252;24413;-72
2024/04/02 06:58:30;;;;;;;6.70;3.70;;;;;;;10.85;64.84;98891.20;111343;1252;21956;-71
2024/04/02 07:01:00;;;;;;;4.80;3.30;;;;;;;10.86;64.76;98895.17;111363;1252;22110;-72
2024/04/02 07:03:29;;;;;;;4.00;3.30;;;;;;;10.86;64.34;98900.27;111327;1252;21977;-73
2024/04/02 07:05:58;;;;;;;5.00;3.40;;;;;;;10.87;64.24;98908.13;111602;1252;23072;-72
2024/04/02 07:08:28;;;;;;;16.10;14.20;;;;;;;10.88;64.44;98912.07;111596;1252;23003;-72
2024/04/02 07:11:05;;;;;;;11.00;4.60;;;;;;;10.91;64.20;98923.96;111312;1252;23572;-70
2024/04/02 07:13:34;;;;;;;6.10;4.00;;;;;;;10.92;64.12;98922.95;111245;1252;23683;-70
2024/04/02 07:16:03;;;;;;;5.40;3.40;;;;;;;10.95;64.12;98919.88;111333;1252;23591;-71
2024/04/02 07:18:35;;;;;;;5.70;4.20;;;;;;;10.99;64.14;98920.50;111577;1252;21967;-70
2024/04/02 07:21:09;;;;;;;4.70;3.50;;;;;;;11.06;64.12;98920.95;111308;1252;23002;-72
2024/04/02 07:23:40;;;;;;;7.20;4.00;;;;;;;11.14;64.23;98920.73;111340;1252;23865;-71
2024/04/02 07:26:08;;;;;;;5.20;3.70;;;;;;;11.29;64.01;98922.14;111647;1252;21966;-73
2024/04/02 07:28:39;;;;;;;4.30;3.50;;;;;;;11.45;63.67;98919.61;111528;1252;21968;-71
2024/04/02 07:31:07;;;;;;;5.00;4.30;;;;;;;11.59;63.36;98921.15;111642;1252;23589;-72
2024/04/02 07:33:36;;;;;;;4.90;3.30;;;;;;;11.70;62.92;98927.16;111574;1252;21928;-72
2024/04/02 07:36:06;;;;;;;12.60;9.20;;;;;;;11.80;62.31;98930.08;111610;1252;23780;-73
2024/04/02 07:38:35;;;;;;;8.70;4.80;;;;;;;11.94;62.04;98931.32;111304;1252;23007;-72
2024/04/02 07:41:04;;;;;;;5.00;3.60;;;;;;;12.19;61.79;98934.13;111576;1252;23696;-72
2024/04/02 07:43:32;;;;;;;4.00;3.60;;;;;;;12.39;60.89;98938.10;111279;1252;23669;-73
2024/04/02 07:46:02;;;;;;;4.80;3.60;;;;;;;12.57;60.77;98936.73;111599;1252;23576;-70
2024/04/02 07:48:31;;;;;;;4.40;3.70;;;;;;;12.84;60.29;98935.73;111330;1252;23721;-71
2024/04/02 07:51:10;;;;;;;7.00;4.10;;;;;;;13.17;59.82;98937.98;111302;1252;23585;-73
2024/04/02 07:53:39;;;;;;;7.20;4.80;;;;;;;13.54;58.60;98940.16;111329;1252;23674;-72
2024/04/02 07:56:08;;;;;;;8.40;3.60;;;;;;;13.68;57.24;98936.86;111577;1252;23712;-72
2024/04/02 07:58:37;;;;;;;6.00;4.00;;;;;;;13.78;57.33;98936.39;111304;1252;21967;-74
2024/04/02 08:01:06;;;;;;;5.40;3.40;;;;;;;13.79;56.93;98936.30;111301;1252;23591;-74
2024/04/02 08:03:34;;;;;;;5.10;4.00;;;;;;;13.75;56.79;98941.63;111589;1252;23772;-74
2024/04/02 08:06:03;;;;;;;4.40;3.50;;;;;;;13.67;56.46;98945.45;111621;1252;22827;-74
2024/04/02 08:08:32;;;;;;;7.90;4.00;;;;;;;13.57;56.44;98948.31;111583;1252;21989;-74
2024/04/02 08:11:01;;;;;;;6.30;4.00;;;;;;;13.46;56.20;98950.36;111607;1252;23031;-74
2024/04/02 08:13:29;;;;;;;4.00;3.30;;;;;;;13.42;56.49;98956.64;111340;1252;23565;-74
2024/04/02 08:15:59;;;;;;;6.70;4.00;;;;;;;13.41;56.58;98960.95;111593;1241;23016;-75
2024/04/02 08:18:27;;;;;;;8.40;3.50;;;;;;;13.40;56.54;98960.84;111308;1252;23563;-74
2024/04/02 08:20:56;;;;;;;6.40;3.40;;;;;;;13.40;56.21;98970.82;111307;1252;24340;-75
2024/04/02 08:23:25;;;;;;;4.10;3.40;;;;;;;13.35;56.33;98974.31;111583;1252;23645;-75
2024/04/02 08:25:54;;;;;;;7.70;4.40;;;;;;;13.29;56.41;98981.86;111565;1252;21954;-74
2024/04/02 08:28:23;;;;;;;5.60;4.10;;;;;;;13.23;56.32;98982.33;111812;1252;22263;-76
2024/04/02 08:30:52;;;;;;;6.30;3.70;;;;;;;13.18;56.68;98985.80;111943;1252;21952;-73
2024/04/02 08:33:21;;;;;;;8.40;5.30;;;;;;;13.15;57.18;98989.75;113148;1252;21952;-73
2024/04/02 08:35:51;;;;;;;6.30;4.90;;;;;;;13.13;57.32;98987.52;111740;1253;22154;-75
2024/04/02 08:38:19;;;;;;;7.00;5.40;;;;;;;13.10;57.32;98989.42;111407;1253;23361;-74
2024/04/02 08:40:54;;;;;;;5.80;5.20;;;;;;;13.07;57.55;98987.83;111261;1253;22647;-74
2024/04/02 08:43:23;;;;;;;6.50;4.10;;;;;;;13.08;57.62;98992.52;111391;1253;23010;-74
2024/04/02 08:45:53;;;;;;;5.50;3.50;;;;;;;13.09;57.37;98996.91;111323;1253;21946;-75
2024/04/02 08:48:22;;;;;;;8.40;4.30;;;;;;;13.11;57.30;99000.61;111150;1253;22830;-75
2024/04/02 08:50:55;;;;;;;9.60;4.50;;;;;;;13.13;57.31;98997.77;111312;1253;23103;-75
2024/04/02 08:53:24;;;;;;;7.60;4.70;;;;;;;13.19;57.04;99002.27;111373;1253;21987;-75
2024/04/02 08:55:59;;;;;;;6.40;4.60;;;;;;;13.24;57.06;99006.06;111231;1253;21990;-74
2024/04/02 08:58:29;;;;;;;6.60;4.10;;;;;;;13.32;57.44;99003.64;111417;1253;21959;-76
2024/04/02 09:01:03;;;;;;;4.60;4.20;;;;;;;13.40;57.11;99004.14;111095;1243;23024;-76
2024/04/02 09:03:34;;;;;;;4.80;4.30;;;;;;;13.46;56.68;99009.27;111299;1253;22045;-74
2024/04/02 09:06:04;;;;;;;6.60;4.40;;;;;;;13.51;56.70;99017.74;111337;1253;21960;-75
2024/04/02 09:08:47;;;;;;;5.50;4.10;;;;;;;13.44;56.01;99019.92;111403;1253;23567;-74
2024/04/02 09:11:16;;;;;;;7.00;4.10;;;;;;;13.33;56.14;99024.88;111302;1251;22001;-75
2024/04/02 09:13:45;;;;;;;5.50;3.90;;;;;;;13.30;56.25;99025.27;111380;1253;22066;-75
2024/04/02 09:16:14;;;;;;;4.10;3.70;;;;;;;13.28;56.42;99029.36;111413;1253;22295;-74
2024/04/02 09:18:45;;;;;;;4.30;3.40;;;;;;;13.28;56.24;99031.45;111403;1253;23718;-74
2024/04/02 09:21:15;;;;;;;4.20;3.80;;;;;;;13.26;56.62;99030.55;111268;1253;22038;-74
2024/04/02 09:23:44;;;;;;;5.50;3.70;;;;;;;13.23;56.55;99026.13;111314;1253;21965;-73
2024/04/02 09:26:13;;;;;;;4.90;3.70;;;;;;;13.17;56.56;99030.42;111325;1253;21948;-74
2024/04/02 09:28:41;;;;;;;6.90;5.10;;;;;;;13.17;56.79;99034.08;111229;1253;21967;-75
2024/04/02 09:31:10;;;;;;;4.90;3.90;;;;;;;13.23;56.71;99038.98;111387;1253;23700;-75
2024/04/02 09:33:41;;;;;;;5.30;3.80;;;;;;;13.29;56.29;99036.43;111314;1253;23730;-75
2024/04/02 09:36:32;;;;;;;5.20;3.80;;;;;;;13.28;56.47;99031.48;111382;1253;23646;-73
2024/04/02 09:39:04;;;;;;;7.90;5.00;;;;;;;13.27;56.64;99028.73;111357;1251;21960;-73
2024/04/02 09:41:35;;;;;;;;;;;;;;;13.32;56.61;99027.66;111410;1252;21931;-73
2024/04/02 09:44:12;;;;;;;5.80;4.80;;;;;;;13.28;56.80;99027.73;111626;1252;21955;-70
2024/04/02 09:46:42;;;;;;;6.60;3.90;;;;;;;13.30;56.46;99026.06;111613;1252;21961;-73
2024/04/02 09:49:12;;;;;;;5.90;4.50;;;;;;;13.31;56.23;99024.96;111637;1252;22019;-73
2024/04/02 09:51:42;;;;;;;8.00;4.90;;;;;;;13.35;56.43;99025.26;111529;1252;159881;-73
2024/04/02 09:54:11;;;;;;;5.30;4.30;;;;;;;13.39;56.21;99029.52;111644;1252;23016;-73
2024/04/02 09:56:42;;;;;;;4.40;3.90;;;;;;;13.40;55.87;99037.06;111318;1252;21959;-71
2024/04/02 09:59:12;;;;;;;6.00;4.00;;;;;;;13.39;55.99;99043.38;111431;1252;21957;-71
2024/04/02 10:01:43;;;;;;;4.30;3.90;;;;;;;13.40;55.87;99049.41;111601;1252;22283;-71
2024/04/02 10:04:15;;;;;;;8.90;5.20;;;;;;;13.40;55.86;99057.00;111578;1245;21951;-73
2024/04/02 10:06:46;;;;;;;5.30;4.10;;;;;;;13.37;55.73;99062.32;111596;1252;22257;-71
2024/04/02 10:09:42;;;;;;;4.90;4.30;;;;;;;13.35;55.88;99063.61;111603;1240;21937;-74
2024/04/02 10:12:11;;;;;;;5.30;4.40;;;;;;;13.35;56.09;99065.20;111605;1252;23563;-73
2024/04/02 10:14:43;;;;;;;5.20;4.70;;;;;;;13.39;56.07;99068.33;111572;1252;22234;-73
2024/04/02 10:17:15;;;;;;;6.00;4.50;;;;;;;13.46;56.03;99073.13;111335;1252;21945;-73
2024/04/02 10:19:46;;;;;;;7.70;5.50;;;;;;;13.43;55.59;99072.17;111578;1241;22239;-73
2024/04/02 10:22:39;;;;;;;6.20;5.00;;;;;;;13.29;55.84;99071.13;111401;1252;23584;-72
2024/04/02 10:25:12;;;;;;;5.30;4.80;;;;;;;13.17;56.17;99070.76;111591;1252;21965;-73
2024/04/02 10:27:47;;;;;;;7.60;4.10;;;;;;;13.14;56.33;99079.91;111375;1252;23150;-71
2024/04/02 10:30:19;;;;;;;5.60;4.40;;;;;;;13.23;56.44;99079.86;111590;1252;22993;-72
2024/04/02 10:32:49;;;;;;;6.10;5.00;;;;;;;13.43;56.42;99076.05;111321;1253;23570;-72
2024/04/02 10:35:22;;;;;;;7.60;4.80;;;;;;;13.68;56.30;99075.56;111301;1253;21966;-72
2024/04/02 10:37:57;;;;;;;5.40;4.60;;;;;;;13.93;55.28;99076.50;111315;1253;22919;-72
2024/04/02 10:40:27;;;;;;;7.50;4.60;;;;;;;14.10;54.50;99083.40;111301;1253;23020;-72
2024/04/02 10:42:56;;;;;;;5.20;4.50;;;;;;;14.23;54.58;99082.58;111064;1253;23668;-72
2024/04/02 10:45:24;;;;;;;43.40;6.70;;;;;;;14.34;53.66;99091.00;111281;1253;23028;-72
2024/04/02 10:47:53;;;;;;;7.20;4.00;;;;;;;14.31;53.29;99090.09;111335;1253;22419;-71
2024/04/02 10:50:24;;;;;;;7.50;3.70;;;;;;;14.19;52.90;99089.90;111350;1253;22241;-71
2024/04/02 10:52:53;;;;;;;3.90;3.30;;;;;;;14.00;53.05;99094.01;111312;1253;22427;-71
2024/04/02 10:55:23;;;;;;;6.60;3.40;;;;;;;13.81;53.38;99093.57;111329;1253;21993;-72
2024/04/02 10:57:51;;;;;;;5.20;3.40;;;;;;;13.64;53.83;99095.30;111286;1253;21972;-71
2024/04/02 11:00:20;;;;;;;6.20;3.90;;;;;;;13.53;53.87;99099.09;111319;1253;22129;-73
2024/04/02 11:02:49;;;;;;;7.70;4.00;;;;;;;13.46;54.33;99099.78;111342;1253;22721;-72
2024/04/02 11:05:18;;;;;;;4.70;3.10;;;;;;;13.41;54.66;99087.05;111329;1253;24133;-72
2024/04/02 11:07:47;;;;;;;6.20;3.60;;;;;;;13.39;54.89;99077.27;111302;1253;21949;-71
2024/04/02 11:10:17;;;;;;;8.50;4.00;;;;;;;13.44;54.87;99075.37;111332;1253;21940;-71
2024/04/02 11:12:46;;;;;;;6.30;4.40;;;;;;;13.47;54.53;99076.31;111278;1253;21964;-71
2024/04/02 11:15:15;;;;;;;6.50;4.20;;;;;;;13.48;54.48;99085.58;112109;1253;21971;-71
2024/04/02 11:17:44;;;;;;;4.90;3.20;;;;;;;13.46;54.49;99095.32;113071;1253;22884;-71
2024/04/02 11:20:13;;;;;;;6.40;3.60;;;;;;;13.44;54.56;99097.31;111601;1253;22177;-71
2024/04/02 11:25:29;;;;;;;5.70;3.40;;;;;;;13.51;55.13;99098.26;111357;1241;22357;-72
2024/04/02 11:28:05;;;;;;;5.30;3.30;;;;;;;13.70;54.56;99093.41;111304;1253;21955;-71
2024/04/02 11:30:33;;;;;;;5.80;3.80;;;;;;;13.90;54.54;99094.71;111381;1253;23022;-71
2024/04/02 11:33:02;;;;;;;28.60;25.60;;;;;;;14.12;54.14;99094.70;111389;1253;21975;-73
2024/04/02 11:35:31;;;;;;;6.60;4.30;;;;;;;14.30;53.61;99095.14;111357;1253;22387;-71
2024/04/02 11:37:59;;;;;;;6.60;3.40;;;;;;;14.42;52.92;99089.42;111299;1253;21987;-72